This is the latest recevied weather packets stored in our database for station/object SQ5LTL-2. If no packets are shown the sender has not sent any weather packets the latest 10 day(s).
| Time | Temp. | Humidity | Pressure | Rain* | Wind** | Luminosity | Snow |
|---|---|---|---|---|---|---|---|
| 1777865125 | 7.78° C | 76% | 1016.1 hPa | 0 mm | - | 12 W/m² | - |
| 1777864221 | 8.89° C | 72% | 1016.1 hPa | 0 mm | - | 5 W/m² | - |
| 1777863920 | 8.89° C | 71% | 1016 hPa | 0 mm | - | 4 W/m² | - |
| 1777847721 | 13.89° C | 55% | 1016.2 hPa | 0 mm | - | 0 W/m² | - |
| 1777847118 | 13.89° C | 55% | 1016.3 hPa | 0 mm | - | 0 W/m² | - |
| 1777846535 | 14.44° C | 55% | 1016.2 hPa | 0 mm | - | 0 W/m² | - |
| 1777845933 | 14.44° C | 55% | 1016.2 hPa | 0 mm | - | 0 W/m² | - |
| 1777845329 | 13.89° C | 56% | 1016.4 hPa | 0 mm | - | 0 W/m² | - |
| 1777844124 | 12.22° C | 61% | 1016.3 hPa | 0 mm | - | 0 W/m² | - |
| 1777843522 | 11.67° C | 65% | 1016.3 hPa | 0 mm | - | 0 W/m² | - |
| 1777843219 | 12.22° C | 63% | 1016.2 hPa | 0 mm | - | 0 W/m² | - |
| 1777842334 | 11.67° C | 64% | 1016.4 hPa | 0 mm | - | 0 W/m² | - |
| 1777842034 | 11.11° C | 67% | 1016.2 hPa | 0 mm | - | 0 W/m² | - |
| 1777841745 | 10.56° C | 70% | 1016.3 hPa | 0 mm | - | 0 W/m² | - |
| 1777840527 | 10° C | 74% | 1016.3 hPa | 0 mm | - | 0 W/m² | - |
| 1777839922 | 10° C | 74% | 1016.3 hPa | 0 mm | - | 0 W/m² | - |
| 1777839622 | 10° C | 73% | 1016.3 hPa | 0 mm | - | 0 W/m² | - |
| 1777839333 | 10° C | 73% | 1016.3 hPa | 0 mm | - | 0 W/m² | - |
| 1777838134 | 10.56° C | 73% | 1016.4 hPa | 0 mm | - | 0 W/m² | - |
| 1777836928 | 11.11° C | 71% | 1016.3 hPa | 0 mm | - | 0 W/m² | - |
| 1777835724 | 12.22° C | 68% | 1016.3 hPa | 0 mm | - | 0 W/m² | - |
| 1777835421 | 12.22° C | 67% | 1016.3 hPa | 0 mm | - | 0 W/m² | - |
| 1777834236 | 13.89° C | 66% | 1016.2 hPa | 0 mm | - | 0 W/m² | - |
| 1777833934 | 13.89° C | 64% | 1016.2 hPa | 0 mm | - | 0 W/m² | - |
| 1777833331 | 14.44° C | 58% | 1016.1 hPa | 0 mm | - | 0 W/m² | - |
* Rain latest hour (hover to see other rain measurements)
** Current wind speed in m/s (hover to see current wind gust speed)